sensor_id;sensor_type;location;lat;lon;timestamp;temperature;humidity
46159;DHT22;31888;44.512;26.104;2022-08-05T00:02:03;26.10;73.70
46159;DHT22;31888;44.512;26.104;2022-08-05T00:04:14;26.30;72.80
46159;DHT22;31888;44.512;26.104;2022-08-05T00:06:20;26.50;72.30
46159;DHT22;31888;44.512;26.104;2022-08-05T00:08:35;26.70;71.90
46159;DHT22;31888;44.512;26.104;2022-08-05T00:10:40;26.80;72.10
46159;DHT22;31888;44.512;26.104;2022-08-05T00:12:45;26.90;72.40
46159;DHT22;31888;44.512;26.104;2022-08-05T00:14:59;26.90;71.30
46159;DHT22;31888;44.512;26.104;2022-08-05T00:17:24;27.10;71.00
46159;DHT22;31888;44.512;26.104;2022-08-05T00:19:28;27.20;71.10
46159;DHT22;31888;44.512;26.104;2022-08-05T00:21:43;27.00;72.20
46159;DHT22;31888;44.512;26.104;2022-08-05T00:23:48;26.80;73.00
46159;DHT22;31888;44.512;26.104;2022-08-05T00:26:13;26.40;74.60
46159;DHT22;31888;44.512;26.104;2022-08-05T00:28:18;26.10;74.70
46159;DHT22;31888;44.512;26.104;2022-08-05T00:30:31;26.00;75.40
46159;DHT22;31888;44.512;26.104;2022-08-05T00:32:36;25.90;75.70
46159;DHT22;31888;44.512;26.104;2022-08-05T00:34:43;25.90;75.40
46159;DHT22;31888;44.512;26.104;2022-08-05T00:37:10;25.80;76.20
46159;DHT22;31888;44.512;26.104;2022-08-05T00:39:16;25.70;76.50
46159;DHT22;31888;44.512;26.104;2022-08-05T00:41:27;25.50;76.80
46159;DHT22;31888;44.512;26.104;2022-08-05T00:43:52;25.40;77.60
46159;DHT22;31888;44.512;26.104;2022-08-05T00:45:56;25.20;77.70
46159;DHT22;31888;44.512;26.104;2022-08-05T00:48:01;25.10;78.10
46159;DHT22;31888;44.512;26.104;2022-08-05T00:50:08;25.00;78.50
46159;DHT22;31888;44.512;26.104;2022-08-05T00:52:14;24.90;78.90
46159;DHT22;31888;44.512;26.104;2022-08-05T00:54:19;24.90;79.20
46159;DHT22;31888;44.512;26.104;2022-08-05T00:56:29;24.80;79.30
46159;DHT22;31888;44.512;26.104;2022-08-05T00:58:43;24.80;79.80
46159;DHT22;31888;44.512;26.104;2022-08-05T01:00:49;24.70;79.90
46159;DHT22;31888;44.512;26.104;2022-08-05T01:02:54;24.70;79.80
46159;DHT22;31888;44.512;26.104;2022-08-05T01:05:01;24.70;80.00
46159;DHT22;31888;44.512;26.104;2022-08-05T01:07:11;24.70;80.20
46159;DHT22;31888;44.512;26.104;2022-08-05T01:09:21;24.60;80.50
46159;DHT22;31888;44.512;26.104;2022-08-05T01:11:34;24.50;80.50
46159;DHT22;31888;44.512;26.104;2022-08-05T01:13:47;24.60;80.70
46159;DHT22;31888;44.512;26.104;2022-08-05T01:16:02;24.60;80.70
46159;DHT22;31888;44.512;26.104;2022-08-05T01:18:12;24.50;80.70
46159;DHT22;31888;44.512;26.104;2022-08-05T01:20:33;24.60;80.80
46159;DHT22;31888;44.512;26.104;2022-08-05T01:22:51;24.60;80.70
46159;DHT22;31888;44.512;26.104;2022-08-05T01:25:12;24.50;80.90
46159;DHT22;31888;44.512;26.104;2022-08-05T01:27:38;24.50;81.10
46159;DHT22;31888;44.512;26.104;2022-08-05T01:30:00;24.50;81.30
46159;DHT22;31888;44.512;26.104;2022-08-05T01:32:22;24.50;81.20
46159;DHT22;31888;44.512;26.104;2022-08-05T01:34:31;24.50;81.10
46159;DHT22;31888;44.512;26.104;2022-08-05T01:36:42;24.50;81.10
46159;DHT22;31888;44.512;26.104;2022-08-05T01:38:49;24.60;80.90
46159;DHT22;31888;44.512;26.104;2022-08-05T01:40:56;24.70;80.30
46159;DHT22;31888;44.512;26.104;2022-08-05T01:43:06;24.80;80.10
46159;DHT22;31888;44.512;26.104;2022-08-05T01:45:27;24.90;79.90
46159;DHT22;31888;44.512;26.104;2022-08-05T01:47:45;25.10;79.70
46159;DHT22;31888;44.512;26.104;2022-08-05T01:49:56;25.20;79.30
46159;DHT22;31888;44.512;26.104;2022-08-05T01:52:08;25.20;79.50
46159;DHT22;31888;44.512;26.104;2022-08-05T01:54:20;25.30;79.80
46159;DHT22;31888;44.512;26.104;2022-08-05T01:56:31;25.30;80.20
46159;DHT22;31888;44.512;26.104;2022-08-05T01:59:00;25.30;80.30
46159;DHT22;31888;44.512;26.104;2022-08-05T02:01:06;25.20;80.70
46159;DHT22;31888;44.512;26.104;2022-08-05T02:03:16;25.20;80.90
46159;DHT22;31888;44.512;26.104;2022-08-05T02:05:36;25.10;80.90
46159;DHT22;31888;44.512;26.104;2022-08-05T02:07:44;25.10;80.70
46159;DHT22;31888;44.512;26.104;2022-08-05T02:10:04;25.00;81.30
46159;DHT22;31888;44.512;26.104;2022-08-05T02:12:15;25.00;81.30
46159;DHT22;31888;44.512;26.104;2022-08-05T02:14:27;24.80;82.00
46159;DHT22;31888;44.512;26.104;2022-08-05T02:16:38;24.80;82.10
46159;DHT22;31888;44.512;26.104;2022-08-05T02:18:49;24.80;82.30
46159;DHT22;31888;44.512;26.104;2022-08-05T02:20:59;24.60;82.90
46159;DHT22;31888;44.512;26.104;2022-08-05T02:23:09;24.40;83.90
46159;DHT22;31888;44.512;26.104;2022-08-05T02:25:18;24.40;83.60
46159;DHT22;31888;44.512;26.104;2022-08-05T02:27:30;24.50;83.50
46159;DHT22;31888;44.512;26.104;2022-08-05T02:30:00;24.50;82.90
46159;DHT22;31888;44.512;26.104;2022-08-05T02:32:07;24.50;83.30
46159;DHT22;31888;44.512;26.104;2022-08-05T02:34:14;24.50;83.10
46159;DHT22;31888;44.512;26.104;2022-08-05T02:36:21;24.50;83.30
46159;DHT22;31888;44.512;26.104;2022-08-05T02:38:30;24.50;83.60
46159;DHT22;31888;44.512;26.104;2022-08-05T02:40:41;24.40;83.80
46159;DHT22;31888;44.512;26.104;2022-08-05T02:42:46;24.40;84.00
46159;DHT22;31888;44.512;26.104;2022-08-05T02:44:58;24.40;84.00
46159;DHT22;31888;44.512;26.104;2022-08-05T02:47:08;24.30;84.00
46159;DHT22;31888;44.512;26.104;2022-08-05T02:49:15;24.30;84.20
46159;DHT22;31888;44.512;26.104;2022-08-05T02:51:24;24.30;84.60
46159;DHT22;31888;44.512;26.104;2022-08-05T02:53:49;24.20;84.50
46159;DHT22;31888;44.512;26.104;2022-08-05T02:56:01;24.20;84.50
46159;DHT22;31888;44.512;26.104;2022-08-05T02:58:08;24.10;84.60
46159;DHT22;31888;44.512;26.104;2022-08-05T03:00:16;24.00;85.20
46159;DHT22;31888;44.512;26.104;2022-08-05T03:02:25;24.00;85.30
46159;DHT22;31888;44.512;26.104;2022-08-05T03:04:33;24.00;85.00
46159;DHT22;31888;44.512;26.104;2022-08-05T03:06:38;24.00;85.40
46159;DHT22;31888;44.512;26.104;2022-08-05T03:09:00;24.00;85.50
46159;DHT22;31888;44.512;26.104;2022-08-05T03:11:16;24.00;85.20
46159;DHT22;31888;44.512;26.104;2022-08-05T03:13:41;24.00;85.60
46159;DHT22;31888;44.512;26.104;2022-08-05T03:15:55;23.80;86.40
46159;DHT22;31888;44.512;26.104;2022-08-05T03:18:00;23.90;85.90
46159;DHT22;31888;44.512;26.104;2022-08-05T03:20:06;23.80;86.10
46159;DHT22;31888;44.512;26.104;2022-08-05T03:22:11;24.10;77.20
46159;DHT22;31888;44.512;26.104;2022-08-05T03:24:21;24.50;77.20
46159;DHT22;31888;44.512;26.104;2022-08-05T03:26:32;24.90;77.40
46159;DHT22;31888;44.512;26.104;2022-08-05T03:28:37;25.40;76.00
46159;DHT22;31888;44.512;26.104;2022-08-05T03:30:43;25.80;74.60
46159;DHT22;31888;44.512;26.104;2022-08-05T03:32:50;26.20;74.00
46159;DHT22;31888;44.512;26.104;2022-08-05T03:35:02;26.60;74.70
46159;DHT22;31888;44.512;26.104;2022-08-05T03:37:07;26.90;72.70
46159;DHT22;31888;44.512;26.104;2022-08-05T03:39:12;27.20;73.70
46159;DHT22;31888;44.512;26.104;2022-08-05T03:41:29;27.40;73.10
46159;DHT22;31888;44.512;26.104;2022-08-05T03:43:46;27.60;74.20
46159;DHT22;31888;44.512;26.104;2022-08-05T03:46:11;27.70;74.70
46159;DHT22;31888;44.512;26.104;2022-08-05T03:48:17;27.90;72.90
46159;DHT22;31888;44.512;26.104;2022-08-05T03:50:24;28.00;73.20
46159;DHT22;31888;44.512;26.104;2022-08-05T03:52:39;28.20;72.60
46159;DHT22;31888;44.512;26.104;2022-08-05T03:55:09;28.40;72.20
46159;DHT22;31888;44.512;26.104;2022-08-05T03:57:40;28.60;71.60
46159;DHT22;31888;44.512;26.104;2022-08-05T03:59:56;28.70;72.20
46159;DHT22;31888;44.512;26.104;2022-08-05T04:02:07;28.60;71.90
46159;DHT22;31888;44.512;26.104;2022-08-05T04:04:21;28.60;71.50
46159;DHT22;31888;44.512;26.104;2022-08-05T04:06:29;28.50;72.00
46159;DHT22;31888;44.512;26.104;2022-08-05T04:08:34;28.50;72.40
46159;DHT22;31888;44.512;26.104;2022-08-05T04:10:39;28.60;72.30
46159;DHT22;31888;44.512;26.104;2022-08-05T04:12:44;28.60;72.00
46159;DHT22;31888;44.512;26.104;2022-08-05T04:14:49;28.70;72.00
46159;DHT22;31888;44.512;26.104;2022-08-05T04:16:54;28.20;72.80
46159;DHT22;31888;44.512;26.104;2022-08-05T04:18:58;28.10;73.50
46159;DHT22;31888;44.512;26.104;2022-08-05T04:21:05;28.60;72.30
46159;DHT22;31888;44.512;26.104;2022-08-05T04:23:13;29.20;71.00
46159;DHT22;31888;44.512;26.104;2022-08-05T04:25:18;29.40;71.30
46159;DHT22;31888;44.512;26.104;2022-08-05T04:27:42;30.40;69.60
46159;DHT22;31888;44.512;26.104;2022-08-05T04:30:02;30.90;68.30
46159;DHT22;31888;44.512;26.104;2022-08-05T04:32:07;32.10;66.00
46159;DHT22;31888;44.512;26.104;2022-08-05T04:34:12;32.40;65.40
46159;DHT22;31888;44.512;26.104;2022-08-05T04:36:37;33.00;64.40
46159;DHT22;31888;44.512;26.104;2022-08-05T04:38:52;33.50;63.10
46159;DHT22;31888;44.512;26.104;2022-08-05T04:40:58;33.70;62.80
46159;DHT22;31888;44.512;26.104;2022-08-05T04:43:05;33.80;62.40
46159;DHT22;31888;44.512;26.104;2022-08-05T04:45:18;33.70;62.40
46159;DHT22;31888;44.512;26.104;2022-08-05T04:47:43;33.50;62.70
46159;DHT22;31888;44.512;26.104;2022-08-05T04:49:49;33.30;63.00
46159;DHT22;31888;44.512;26.104;2022-08-05T04:52:09;33.10;63.70
46159;DHT22;31888;44.512;26.104;2022-08-05T04:54:14;33.70;62.20
46159;DHT22;31888;44.512;26.104;2022-08-05T04:56:19;34.10;61.60
46159;DHT22;31888;44.512;26.104;2022-08-05T04:58:38;34.60;60.80
46159;DHT22;31888;44.512;26.104;2022-08-05T05:00:43;34.80;59.60
46159;DHT22;31888;44.512;26.104;2022-08-05T05:02:52;34.80;59.70
46159;DHT22;31888;44.512;26.104;2022-08-05T05:04:56;34.10;60.60
46159;DHT22;31888;44.512;26.104;2022-08-05T05:07:05;34.20;60.90
46159;DHT22;31888;44.512;26.104;2022-08-05T05:09:13;34.70;60.10
46159;DHT22;31888;44.512;26.104;2022-08-05T05:11:23;34.60;60.00
46159;DHT22;31888;44.512;26.104;2022-08-05T05:13:48;34.90;59.90
46159;DHT22;31888;44.512;26.104;2022-08-05T05:16:03;35.30;59.40
46159;DHT22;31888;44.512;26.104;2022-08-05T05:18:11;35.30;59.20
46159;DHT22;31888;44.512;26.104;2022-08-05T05:20:15;35.70;58.50
46159;DHT22;31888;44.512;26.104;2022-08-05T05:22:22;35.80;58.30
46159;DHT22;31888;44.512;26.104;2022-08-05T05:24:30;35.50;58.60
46159;DHT22;31888;44.512;26.104;2022-08-05T05:26:54;35.50;58.80
46159;DHT22;31888;44.512;26.104;2022-08-05T05:28:59;35.60;58.60
46159;DHT22;31888;44.512;26.104;2022-08-05T05:31:04;36.00;58.10
46159;DHT22;31888;44.512;26.104;2022-08-05T05:33:10;35.90;57.40
46159;DHT22;31888;44.512;26.104;2022-08-05T05:35:19;35.50;58.30
46159;DHT22;31888;44.512;26.104;2022-08-05T05:37:24;35.50;58.50
46159;DHT22;31888;44.512;26.104;2022-08-05T05:39:49;35.70;58.30
46159;DHT22;31888;44.512;26.104;2022-08-05T05:41:54;35.70;58.20
46159;DHT22;31888;44.512;26.104;2022-08-05T05:43:58;36.00;58.00
46159;DHT22;31888;44.512;26.104;2022-08-05T05:46:03;35.60;58.30
46159;DHT22;31888;44.512;26.104;2022-08-05T05:48:15;35.50;58.10
46159;DHT22;31888;44.512;26.104;2022-08-05T05:50:29;35.60;58.60
46159;DHT22;31888;44.512;26.104;2022-08-05T05:52:35;35.70;58.20
46159;DHT22;31888;44.512;26.104;2022-08-05T05:54:42;36.00;58.50
46159;DHT22;31888;44.512;26.104;2022-08-05T05:56:54;36.40;57.80
46159;DHT22;31888;44.512;26.104;2022-08-05T05:58:58;36.10;57.60
46159;DHT22;31888;44.512;26.104;2022-08-05T06:01:07;36.30;57.90
46159;DHT22;31888;44.512;26.104;2022-08-05T06:03:15;35.40;58.00
46159;DHT22;31888;44.512;26.104;2022-08-05T06:05:39;35.90;57.50
46159;DHT22;31888;44.512;26.104;2022-08-05T06:07:44;35.90;57.40
46159;DHT22;31888;44.512;26.104;2022-08-05T06:10:04;35.60;57.80
46159;DHT22;31888;44.512;26.104;2022-08-05T06:12:13;36.10;57.80
46159;DHT22;31888;44.512;26.104;2022-08-05T06:14:21;36.50;57.10
46159;DHT22;31888;44.512;26.104;2022-08-05T06:16:29;36.80;56.20
46159;DHT22;31888;44.512;26.104;2022-08-05T06:18:39;37.20;55.70
46159;DHT22;31888;44.512;26.104;2022-08-05T06:20:43;36.80;55.70
46159;DHT22;31888;44.512;26.104;2022-08-05T06:22:49;37.00;56.20
46159;DHT22;31888;44.512;26.104;2022-08-05T06:24:53;37.30;55.90
46159;DHT22;31888;44.512;26.104;2022-08-05T06:26:58;36.80;55.70
46159;DHT22;31888;44.512;26.104;2022-08-05T06:29:04;36.50;55.70
46159;DHT22;31888;44.512;26.104;2022-08-05T06:31:28;36.70;55.40
46159;DHT22;31888;44.512;26.104;2022-08-05T06:33:33;36.70;55.80
46159;DHT22;31888;44.512;26.104;2022-08-05T06:35:58;36.90;55.70
46159;DHT22;31888;44.512;26.104;2022-08-05T06:38:11;36.30;56.20
46159;DHT22;31888;44.512;26.104;2022-08-05T06:40:17;35.30;56.80
46159;DHT22;31888;44.512;26.104;2022-08-05T06:42:23;34.90;58.50
46159;DHT22;31888;44.512;26.104;2022-08-05T06:44:29;35.30;57.70
46159;DHT22;31888;44.512;26.104;2022-08-05T06:46:33;35.70;57.20
46159;DHT22;31888;44.512;26.104;2022-08-05T06:48:37;35.50;57.40
46159;DHT22;31888;44.512;26.104;2022-08-05T06:51:02;35.70;57.20
46159;DHT22;31888;44.512;26.104;2022-08-05T06:53:11;35.80;57.10
46159;DHT22;31888;44.512;26.104;2022-08-05T06:55:29;35.60;56.30
46159;DHT22;31888;44.512;26.104;2022-08-05T06:57:38;35.10;56.90
46159;DHT22;31888;44.512;26.104;2022-08-05T07:00:05;35.40;57.00
46159;DHT22;31888;44.512;26.104;2022-08-05T07:02:11;35.90;57.40
46159;DHT22;31888;44.512;26.104;2022-08-05T07:04:16;36.30;56.40
46159;DHT22;31888;44.512;26.104;2022-08-05T07:06:21;36.20;55.50
46159;DHT22;31888;44.512;26.104;2022-08-05T07:08:29;35.60;56.10
46159;DHT22;31888;44.512;26.104;2022-08-05T07:10:33;35.50;56.70
46159;DHT22;31888;44.512;26.104;2022-08-05T07:12:39;35.90;56.10
46159;DHT22;31888;44.512;26.104;2022-08-05T07:15:01;36.10;56.30
46159;DHT22;31888;44.512;26.104;2022-08-05T07:17:45;35.90;55.90
46159;DHT22;31888;44.512;26.104;2022-08-05T07:20:09;35.40;56.90
46159;DHT22;31888;44.512;26.104;2022-08-05T07:22:33;35.30;57.50
46159;DHT22;31888;44.512;26.104;2022-08-05T07:24:38;35.60;56.60
46159;DHT22;31888;44.512;26.104;2022-08-05T07:26:54;35.10;57.50
46159;DHT22;31888;44.512;26.104;2022-08-05T07:28:58;35.10;57.50
46159;DHT22;31888;44.512;26.104;2022-08-05T07:31:03;34.70;58.00
46159;DHT22;31888;44.512;26.104;2022-08-05T07:33:10;34.80;57.60
46159;DHT22;31888;44.512;26.104;2022-08-05T07:35:19;35.00;57.10
46159;DHT22;31888;44.512;26.104;2022-08-05T07:37:43;34.40;57.80
46159;DHT22;31888;44.512;26.104;2022-08-05T07:39:49;34.60;57.60
46159;DHT22;31888;44.512;26.104;2022-08-05T07:42:13;35.30;57.20
46159;DHT22;31888;44.512;26.104;2022-08-05T07:44:18;35.30;56.40
46159;DHT22;31888;44.512;26.104;2022-08-05T07:46:24;35.20;56.80
46159;DHT22;31888;44.512;26.104;2022-08-05T07:48:30;35.00;57.10
46159;DHT22;31888;44.512;26.104;2022-08-05T07:50:55;35.40;56.70
46159;DHT22;31888;44.512;26.104;2022-08-05T07:53:01;36.00;55.90
46159;DHT22;31888;44.512;26.104;2022-08-05T07:55:07;36.40;55.30
46159;DHT22;31888;44.512;26.104;2022-08-05T07:57:31;36.50;54.90
46159;DHT22;31888;44.512;26.104;2022-08-05T07:59:55;36.70;54.40
46159;DHT22;31888;44.512;26.104;2022-08-05T08:02:00;37.10;53.90
46159;DHT22;31888;44.512;26.104;2022-08-05T08:04:06;37.30;52.80
46159;DHT22;31888;44.512;26.104;2022-08-05T08:06:11;37.10;53.00
46159;DHT22;31888;44.512;26.104;2022-08-05T08:08:15;36.70;53.50
46159;DHT22;31888;44.512;26.104;2022-08-05T08:10:22;36.30;54.00
46159;DHT22;31888;44.512;26.104;2022-08-05T08:12:28;35.80;54.40
46159;DHT22;31888;44.512;26.104;2022-08-05T08:14:51;35.10;54.70
46159;DHT22;31888;44.512;26.104;2022-08-05T08:16:55;35.20;55.10
46159;DHT22;31888;44.512;26.104;2022-08-05T08:19:00;35.30;55.40
46159;DHT22;31888;44.512;26.104;2022-08-05T08:21:09;35.70;54.40
46159;DHT22;31888;44.512;26.104;2022-08-05T08:23:19;35.80;54.60
46159;DHT22;31888;44.512;26.104;2022-08-05T08:25:44;35.50;55.00
46159;DHT22;31888;44.512;26.104;2022-08-05T08:28:03;36.00;54.50
46159;DHT22;31888;44.512;26.104;2022-08-05T08:30:20;36.20;54.10
46159;DHT22;31888;44.512;26.104;2022-08-05T08:32:38;36.60;53.80
46159;DHT22;31888;44.512;26.104;2022-08-05T08:34:43;36.90;53.50
46159;DHT22;31888;44.512;26.104;2022-08-05T08:36:49;36.10;53.00
46159;DHT22;31888;44.512;26.104;2022-08-05T08:39:05;35.20;53.90
46159;DHT22;31888;44.512;26.104;2022-08-05T08:41:18;35.30;54.60
46159;DHT22;31888;44.512;26.104;2022-08-05T08:43:28;35.00;54.90
46159;DHT22;31888;44.512;26.104;2022-08-05T08:45:55;35.30;54.70
46159;DHT22;31888;44.512;26.104;2022-08-05T08:48:01;35.90;54.30
46159;DHT22;31888;44.512;26.104;2022-08-05T08:50:28;36.50;53.50
46159;DHT22;31888;44.512;26.104;2022-08-05T08:53:00;36.70;53.50
46159;DHT22;31888;44.512;26.104;2022-08-05T08:55:10;36.90;52.30
46159;DHT22;31888;44.512;26.104;2022-08-05T08:57:15;36.40;52.20
46159;DHT22;31888;44.512;26.104;2022-08-05T08:59:19;36.30;52.70
46159;DHT22;31888;44.512;26.104;2022-08-05T09:01:30;35.90;53.90
46159;DHT22;31888;44.512;26.104;2022-08-05T09:03:35;35.40;53.80
46159;DHT22;31888;44.512;26.104;2022-08-05T09:05:47;35.90;53.70
46159;DHT22;31888;44.512;26.104;2022-08-05T09:08:13;36.40;53.30
46159;DHT22;31888;44.512;26.104;2022-08-05T09:10:21;36.20;53.10
46159;DHT22;31888;44.512;26.104;2022-08-05T09:12:31;35.90;53.20
46159;DHT22;31888;44.512;26.104;2022-08-05T09:14:36;35.90;54.10
46159;DHT22;31888;44.512;26.104;2022-08-05T09:17:04;36.00;53.80
46159;DHT22;31888;44.512;26.104;2022-08-05T09:19:11;36.40;53.20
46159;DHT22;31888;44.512;26.104;2022-08-05T09:21:16;36.40;52.90
46159;DHT22;31888;44.512;26.104;2022-08-05T09:23:44;35.60;53.00
46159;DHT22;31888;44.512;26.104;2022-08-05T09:25:51;35.50;53.30
46159;DHT22;31888;44.512;26.104;2022-08-05T09:28:13;35.70;53.70
46159;DHT22;31888;44.512;26.104;2022-08-05T09:30:23;36.00;53.60
46159;DHT22;31888;44.512;26.104;2022-08-05T09:32:34;36.10;53.10
46159;DHT22;31888;44.512;26.104;2022-08-05T09:34:52;35.90;53.70
46159;DHT22;31888;44.512;26.104;2022-08-05T09:36:56;36.20;53.20
46159;DHT22;31888;44.512;26.104;2022-08-05T09:39:05;36.40;52.70
46159;DHT22;31888;44.512;26.104;2022-08-05T09:41:24;36.70;52.40
46159;DHT22;31888;44.512;26.104;2022-08-05T09:43:36;36.70;52.50
46159;DHT22;31888;44.512;26.104;2022-08-05T09:45:43;35.80;52.70
46159;DHT22;31888;44.512;26.104;2022-08-05T09:48:22;35.30;53.00
46159;DHT22;31888;44.512;26.104;2022-08-05T09:50:36;34.70;54.40
46159;DHT22;31888;44.512;26.104;2022-08-05T09:52:46;34.80;54.60
46159;DHT22;31888;44.512;26.104;2022-08-05T09:55:03;34.80;54.00
46159;DHT22;31888;44.512;26.104;2022-08-05T09:57:36;34.90;53.80
46159;DHT22;31888;44.512;26.104;2022-08-05T09:59:47;35.20;53.40
46159;DHT22;31888;44.512;26.104;2022-08-05T10:01:56;35.60;53.10
46159;DHT22;31888;44.512;26.104;2022-08-05T10:04:05;35.90;52.80
46159;DHT22;31888;44.512;26.104;2022-08-05T10:06:12;35.80;53.30
46159;DHT22;31888;44.512;26.104;2022-08-05T10:08:23;36.00;53.10
46159;DHT22;31888;44.512;26.104;2022-08-05T10:10:47;36.00;52.80
46159;DHT22;31888;44.512;26.104;2022-08-05T10:12:58;35.90;52.20
46159;DHT22;31888;44.512;26.104;2022-08-05T10:15:20;35.70;53.00
46159;DHT22;31888;44.512;26.104;2022-08-05T10:17:25;35.10;53.00
46159;DHT22;31888;44.512;26.104;2022-08-05T10:19:42;34.50;53.20
46159;DHT22;31888;44.512;26.104;2022-08-05T10:22:08;34.70;53.70
46159;DHT22;31888;44.512;26.104;2022-08-05T10:24:31;35.10;53.00
46159;DHT22;31888;44.512;26.104;2022-08-05T10:26:44;35.40;52.90
46159;DHT22;31888;44.512;26.104;2022-08-05T10:28:54;35.40;53.00
46159;DHT22;31888;44.512;26.104;2022-08-05T10:30:59;35.30;53.20
46159;DHT22;31888;44.512;26.104;2022-08-05T10:33:25;34.60;53.50
46159;DHT22;31888;44.512;26.104;2022-08-05T10:35:36;34.50;54.40
46159;DHT22;31888;44.512;26.104;2022-08-05T10:37:46;34.80;54.00
46159;DHT22;31888;44.512;26.104;2022-08-05T10:39:55;34.60;53.40
46159;DHT22;31888;44.512;26.104;2022-08-05T10:42:23;34.60;53.90
46159;DHT22;31888;44.512;26.104;2022-08-05T10:44:37;34.20;54.00
46159;DHT22;31888;44.512;26.104;2022-08-05T10:46:44;34.40;54.00
46159;DHT22;31888;44.512;26.104;2022-08-05T10:48:56;34.60;54.00
46159;DHT22;31888;44.512;26.104;2022-08-05T10:51:13;34.60;53.10
46159;DHT22;31888;44.512;26.104;2022-08-05T10:53:42;34.80;53.10
46159;DHT22;31888;44.512;26.104;2022-08-05T10:56:01;35.00;53.00
46159;DHT22;31888;44.512;26.104;2022-08-05T10:58:24;34.70;53.50
46159;DHT22;31888;44.512;26.104;2022-08-05T11:00:49;34.60;53.80
46159;DHT22;31888;44.512;26.104;2022-08-05T11:03:09;34.40;53.90
46159;DHT22;31888;44.512;26.104;2022-08-05T11:05:28;34.60;54.00
46159;DHT22;31888;44.512;26.104;2022-08-05T11:07:55;34.50;54.20
46159;DHT22;31888;44.512;26.104;2022-08-05T11:10:20;34.40;54.30
46159;DHT22;31888;44.512;26.104;2022-08-05T11:12:43;34.30;54.40
46159;DHT22;31888;44.512;26.104;2022-08-05T11:15:06;34.40;54.00
46159;DHT22;31888;44.512;26.104;2022-08-05T11:17:30;34.30;54.20
46159;DHT22;31888;44.512;26.104;2022-08-05T11:19:56;34.50;54.50
46159;DHT22;31888;44.512;26.104;2022-08-05T11:22:40;34.80;54.70
46159;DHT22;31888;44.512;26.104;2022-08-05T11:27:49;35.50;53.20
46159;DHT22;31888;44.512;26.104;2022-08-05T11:30:03;35.70;52.70
46159;DHT22;31888;44.512;26.104;2022-08-05T11:32:27;35.80;52.80
46159;DHT22;31888;44.512;26.104;2022-08-05T11:34:38;35.90;51.70
46159;DHT22;31888;44.512;26.104;2022-08-05T11:36:56;35.70;51.80
46159;DHT22;31888;44.512;26.104;2022-08-05T11:39:00;35.90;52.20
46159;DHT22;31888;44.512;26.104;2022-08-05T11:41:05;36.20;52.10
46159;DHT22;31888;44.512;26.104;2022-08-05T11:43:31;36.10;51.30
46159;DHT22;31888;44.512;26.104;2022-08-05T11:45:56;35.80;51.50
46159;DHT22;31888;44.512;26.104;2022-08-05T11:48:22;35.30;52.40
46159;DHT22;31888;44.512;26.104;2022-08-05T11:50:27;35.10;52.80
46159;DHT22;31888;44.512;26.104;2022-08-05T11:52:32;34.80;53.10
46159;DHT22;31888;44.512;26.104;2022-08-05T11:54:36;34.60;53.40
46159;DHT22;31888;44.512;26.104;2022-08-05T11:56:44;34.30;53.30
46159;DHT22;31888;44.512;26.104;2022-08-05T11:58:53;34.40;53.80
46159;DHT22;31888;44.512;26.104;2022-08-05T12:01:01;34.50;53.30
46159;DHT22;31888;44.512;26.104;2022-08-05T12:03:17;34.90;52.90
46159;DHT22;31888;44.512;26.104;2022-08-05T12:05:33;34.90;52.80
46159;DHT22;31888;44.512;26.104;2022-08-05T12:07:45;34.90;53.20
46159;DHT22;31888;44.512;26.104;2022-08-05T12:10:13;34.90;53.20
46159;DHT22;31888;44.512;26.104;2022-08-05T12:12:22;34.90;53.10
46159;DHT22;31888;44.512;26.104;2022-08-05T12:14:35;35.20;53.00
46159;DHT22;31888;44.512;26.104;2022-08-05T12:16:45;35.40;52.80
46159;DHT22;31888;44.512;26.104;2022-08-05T12:18:50;35.30;52.60
46159;DHT22;31888;44.512;26.104;2022-08-05T12:21:08;35.30;53.00
46159;DHT22;31888;44.512;26.104;2022-08-05T12:23:14;35.30;52.40
46159;DHT22;31888;44.512;26.104;2022-08-05T12:25:18;35.60;52.30
46159;DHT22;31888;44.512;26.104;2022-08-05T12:27:29;35.70;52.10
46159;DHT22;31888;44.512;26.104;2022-08-05T12:29:35;35.80;51.90
46159;DHT22;31888;44.512;26.104;2022-08-05T12:31:44;35.80;52.20
46159;DHT22;31888;44.512;26.104;2022-08-05T12:33:55;35.80;51.60
46159;DHT22;31888;44.512;26.104;2022-08-05T12:36:02;35.10;52.50
46159;DHT22;31888;44.512;26.104;2022-08-05T12:38:10;34.90;53.20
46159;DHT22;31888;44.512;26.104;2022-08-05T12:40:17;34.90;53.00
46159;DHT22;31888;44.512;26.104;2022-08-05T12:42:30;35.00;53.10
46159;DHT22;31888;44.512;26.104;2022-08-05T12:44:35;35.00;52.80
46159;DHT22;31888;44.512;26.104;2022-08-05T12:46:51;35.20;52.60
46159;DHT22;31888;44.512;26.104;2022-08-05T12:48:57;34.90;52.90
46159;DHT22;31888;44.512;26.104;2022-08-05T12:51:13;35.30;52.40
46159;DHT22;31888;44.512;26.104;2022-08-05T12:53:43;35.70;51.80
46159;DHT22;31888;44.512;26.104;2022-08-05T12:55:57;35.70;51.70
46159;DHT22;31888;44.512;26.104;2022-08-05T12:58:02;35.60;51.80
46159;DHT22;31888;44.512;26.104;2022-08-05T13:00:27;35.60;51.60
46159;DHT22;31888;44.512;26.104;2022-08-05T13:02:53;35.50;52.00
46159;DHT22;31888;44.512;26.104;2022-08-05T13:04:59;35.20;52.00
46159;DHT22;31888;44.512;26.104;2022-08-05T13:07:09;35.40;51.90
46159;DHT22;31888;44.512;26.104;2022-08-05T13:09:19;35.60;51.80
46159;DHT22;31888;44.512;26.104;2022-08-05T13:11:30;35.80;51.80
46159;DHT22;31888;44.512;26.104;2022-08-05T13:13:56;35.80;51.50
46159;DHT22;31888;44.512;26.104;2022-08-05T13:16:12;35.60;51.90
46159;DHT22;31888;44.512;26.104;2022-08-05T13:18:18;35.50;52.00
46159;DHT22;31888;44.512;26.104;2022-08-05T13:20:32;35.40;51.90
46159;DHT22;31888;44.512;26.104;2022-08-05T13:22:47;35.30;52.10
46159;DHT22;31888;44.512;26.104;2022-08-05T13:24:53;35.10;52.20
46159;DHT22;31888;44.512;26.104;2022-08-05T13:27:02;34.80;52.70
46159;DHT22;31888;44.512;26.104;2022-08-05T13:29:13;34.70;52.50
46159;DHT22;31888;44.512;26.104;2022-08-05T13:31:37;35.00;52.70
46159;DHT22;31888;44.512;26.104;2022-08-05T13:34:02;35.20;52.90
46159;DHT22;31888;44.512;26.104;2022-08-05T13:36:26;35.10;52.30
46159;DHT22;31888;44.512;26.104;2022-08-05T13:38:33;35.30;51.70
46159;DHT22;31888;44.512;26.104;2022-08-05T13:40:44;35.60;52.40
46159;DHT22;31888;44.512;26.104;2022-08-05T13:42:54;35.70;51.30
46159;DHT22;31888;44.512;26.104;2022-08-05T13:44:58;35.90;51.50
46159;DHT22;31888;44.512;26.104;2022-08-05T13:47:05;35.70;52.10